createdAt,value
2023-01-29T00:01:23.421Z,83.93
2023-01-29T00:03:53.386Z,84.59
2023-01-29T00:06:20.661Z,84.30
2023-01-29T00:08:47.527Z,84.19
2023-01-29T00:11:14.403Z,84.08
2023-01-29T00:13:41.150Z,83.75
2023-01-29T00:16:08.177Z,82.80
2023-01-29T00:18:38.816Z,82.57
2023-01-29T00:21:17.247Z,83.08
2023-01-29T00:23:44.144Z,83.50
2023-01-29T00:26:11.226Z,83.53
2023-01-29T00:28:42.002Z,83.42
2023-01-29T00:31:14.125Z,83.59
2023-01-29T00:33:41.368Z,82.92
2023-01-29T00:36:10.316Z,82.90
2023-01-29T00:38:37.981Z,81.75
2023-01-29T00:41:31.313Z,81.49
2023-01-29T00:44:17.155Z,82.07
2023-01-29T00:46:44.176Z,83.12
2023-01-29T00:49:11.312Z,82.93
2023-01-29T00:51:39.631Z,82.34
2023-01-29T00:54:09.630Z,81.81
2023-01-29T00:56:37.311Z,80.99
2023-01-29T00:59:04.787Z,80.43
2023-01-29T01:01:50.293Z,81.28
2023-01-29T01:04:17.165Z,81.33
2023-01-29T01:06:43.981Z,80.20
2023-01-29T01:09:29.704Z,79.68
2023-01-29T01:11:56.537Z,79.50
2023-01-29T01:14:23.386Z,79.81
2023-01-29T01:16:50.329Z,80.08
2023-01-29T01:19:17.989Z,80.62
2023-01-29T01:21:48.219Z,80.08
2023-01-29T01:24:15.481Z,80.84
2023-01-29T01:26:42.371Z,80.37
2023-01-29T01:29:09.285Z,78.31
2023-01-29T01:31:36.242Z,78.88
2023-01-29T01:34:03.277Z,78.98
2023-01-29T01:36:32.425Z,79.60
2023-01-29T01:38:59.349Z,80.96
2023-01-29T01:41:26.578Z,80.82
2023-01-29T01:43:55.629Z,81.10
2023-01-29T01:46:22.770Z,81.10
2023-01-29T01:48:58.325Z,80.79
2023-01-29T01:51:26.683Z,79.50
2023-01-29T01:54:02.142Z,79.75
2023-01-29T01:56:38.469Z,80.34
2023-01-29T01:59:08.093Z,81.47
2023-01-29T02:01:34.958Z,80.99
2023-01-29T02:04:29.955Z,79.93
2023-01-29T02:07:17.403Z,81.42
2023-01-29T02:09:48.500Z,79.51
2023-01-29T02:12:16.734Z,80.08
2023-01-29T02:14:44.361Z,79.26
2023-01-29T02:17:14.584Z,79.86
2023-01-29T02:19:52.723Z,79.80
2023-01-29T02:22:56.553Z,80.57
2023-01-29T02:26:00.056Z,80.03
2023-01-29T02:28:40.760Z,78.84
2023-01-29T02:31:33.745Z,78.52
2023-01-29T02:34:10.933Z,77.07
2023-01-29T02:36:47.357Z,76.72
2023-01-29T02:39:57.726Z,76.50
2023-01-29T02:43:24.429Z,76.43
2023-01-29T02:46:16.104Z,77.10
2023-01-29T02:48:54.768Z,77.30
2023-01-29T02:51:32.184Z,77.11
2023-01-29T02:54:16.816Z,77.72
2023-01-29T02:57:00.866Z,77.61
2023-01-29T03:00:07.126Z,77.94
2023-01-29T03:03:12.037Z,77.79
2023-01-29T03:05:45.089Z,78.02
2023-01-29T03:08:16.150Z,78.49
2023-01-29T03:10:54.409Z,78.98
2023-01-29T03:13:29.764Z,78.87
2023-01-29T03:16:03.135Z,79.49
2023-01-29T03:18:44.961Z,79.62
2023-01-29T03:21:41.639Z,78.68
2023-01-29T03:24:31.934Z,77.81
2023-01-29T03:27:21.249Z,77.13
2023-01-29T03:30:09.053Z,75.38
2023-01-29T03:32:48.973Z,75.13
2023-01-29T03:35:33.631Z,74.36
2023-01-29T03:38:01.086Z,74.98
2023-01-29T03:40:30.226Z,73.06
2023-01-29T03:43:53.220Z,72.53
2023-01-29T03:46:36.792Z,72.04
2023-01-29T03:49:19.433Z,70.84
2023-01-29T03:51:59.360Z,70.67
2023-01-29T03:54:32.945Z,70.50
2023-01-29T03:57:02.592Z,69.97
2023-01-29T03:59:43.737Z,70.28
2023-01-29T04:02:31.963Z,70.13
2023-01-29T04:05:09.488Z,70.46
2023-01-29T04:07:47.435Z,70.47
2023-01-29T04:10:18.631Z,69.86
2023-01-29T04:12:55.391Z,70.20
2023-01-29T04:15:23.402Z,70.69
2023-01-29T04:17:52.826Z,70.68
2023-01-29T04:20:43.248Z,71.15
2023-01-29T04:23:20.824Z,71.68
2023-01-29T04:25:54.563Z,72.06
2023-01-29T04:28:28.681Z,72.32
2023-01-29T04:31:01.367Z,72.45
2023-01-29T04:33:31.763Z,74.16
2023-01-29T04:36:10.953Z,73.88
2023-01-29T04:39:17.441Z,73.74
2023-01-29T04:41:54.708Z,74.27
2023-01-29T04:44:28.819Z,73.75
2023-01-29T04:47:15.702Z,73.53
2023-01-29T04:50:13.142Z,73.80
2023-01-29T04:52:49.232Z,73.22
2023-01-29T04:55:28.141Z,73.76
2023-01-29T04:58:17.012Z,74.70
2023-01-29T05:00:45.611Z,74.48
2023-01-29T05:03:14.209Z,74.45
2023-01-29T05:05:46.737Z,74.54
2023-01-29T05:08:16.146Z,75.57
2023-01-29T05:10:43.215Z,75.82
2023-01-29T05:13:12.489Z,75.58
2023-01-29T05:15:47.236Z,75.00
2023-01-29T05:18:14.084Z,75.57
2023-01-29T05:20:42.713Z,75.76
2023-01-29T05:23:11.807Z,75.10
2023-01-29T05:25:38.822Z,74.53
2023-01-29T05:28:16.346Z,74.47
2023-01-29T05:30:44.809Z,74.43
2023-01-29T05:33:18.331Z,74.82
2023-01-29T05:35:45.552Z,75.30
2023-01-29T05:38:12.542Z,75.43
2023-01-29T05:40:39.514Z,75.24
2023-01-29T05:43:07.625Z,75.49
2023-01-29T05:45:34.490Z,74.73
2023-01-29T05:48:01.228Z,74.29
2023-01-29T05:50:28.793Z,74.38
2023-01-29T05:52:59.656Z,73.78
2023-01-29T05:55:27.708Z,73.42
2023-01-29T05:57:54.412Z,73.69
2023-01-29T06:00:21.526Z,73.89
2023-01-29T06:02:48.450Z,74.06
2023-01-29T06:05:15.449Z,72.94
2023-01-29T06:07:45.338Z,73.00
2023-01-29T06:10:14.248Z,73.60
2023-01-29T06:12:42.348Z,74.17
2023-01-29T06:15:10.039Z,74.85
2023-01-29T06:17:37.028Z,74.70
2023-01-29T06:20:04.849Z,75.38
2023-01-29T06:22:32.988Z,75.86
2023-01-29T06:24:59.868Z,76.14
2023-01-29T06:27:26.780Z,76.14
2023-01-29T06:29:53.541Z,75.85
2023-01-29T06:32:20.299Z,75.48
2023-01-29T06:34:49.451Z,75.82
2023-01-29T06:37:16.563Z,74.81
2023-01-29T06:39:43.403Z,74.76
2023-01-29T06:42:11.203Z,75.29
2023-01-29T06:44:38.030Z,75.20
2023-01-29T06:47:05.351Z,74.23
2023-01-29T06:49:32.291Z,74.46
2023-01-29T06:51:59.397Z,74.80
2023-01-29T06:54:26.686Z,73.77
2023-01-29T06:56:54.404Z,74.41
2023-01-29T06:59:21.170Z,74.05
2023-01-29T07:01:48.072Z,74.56
2023-01-29T07:04:15.032Z,74.59
2023-01-29T07:06:41.805Z,75.28
2023-01-29T07:09:08.621Z,75.28
2023-01-29T07:11:35.692Z,75.74
2023-01-29T07:14:02.527Z,74.99
2023-01-29T07:16:29.409Z,75.34
2023-01-29T07:18:56.236Z,74.96
2023-01-29T07:21:23.108Z,75.77
2023-01-29T07:23:49.930Z,74.34
2023-01-29T07:26:17.041Z,75.46
2023-01-29T07:28:43.797Z,75.30
2023-01-29T07:31:12.817Z,75.81
2023-01-29T07:33:39.662Z,76.98
2023-01-29T07:36:10.068Z,77.11
2023-01-29T07:38:37.354Z,77.26
2023-01-29T07:41:04.180Z,77.70
2023-01-29T07:43:31.090Z,78.45
2023-01-29T07:46:01.967Z,79.86
2023-01-29T07:48:28.922Z,80.09
2023-01-29T07:50:58.994Z,80.33
2023-01-29T07:53:25.898Z,81.69
2023-01-29T07:55:52.826Z,81.79
2023-01-29T07:58:19.796Z,82.29
2023-01-29T08:00:46.618Z,82.18
2023-01-29T08:03:18.246Z,82.71
2023-01-29T08:05:45.319Z,82.60
2023-01-29T08:08:12.260Z,83.40
2023-01-29T08:10:39.969Z,84.37
2023-01-29T08:13:07.842Z,84.10
2023-01-29T08:15:36.636Z,84.54
2023-01-29T08:18:05.019Z,84.61
2023-01-29T08:20:31.965Z,84.73
2023-01-29T08:23:12.475Z,83.82
2023-01-29T08:25:39.264Z,85.39
2023-01-29T08:28:06.133Z,85.89
2023-01-29T08:30:34.347Z,85.94
2023-01-29T08:33:01.788Z,85.88
2023-01-29T08:35:28.638Z,85.20
2023-01-29T08:37:58.362Z,86.18
2023-01-29T08:40:25.654Z,86.22
2023-01-29T08:42:52.392Z,86.62
2023-01-29T08:45:19.158Z,86.15
2023-01-29T08:47:49.948Z,86.44
2023-01-29T08:50:18.148Z,85.58
2023-01-29T08:52:45.881Z,85.25
2023-01-29T08:55:13.103Z,86.25
2023-01-29T08:57:39.920Z,86.70
2023-01-29T09:00:09.747Z,86.51
2023-01-29T09:02:37.227Z,86.03
2023-01-29T09:05:04.195Z,86.36
2023-01-29T09:07:30.975Z,86.28
2023-01-29T09:09:57.733Z,86.27
2023-01-29T09:12:24.691Z,86.28
2023-01-29T09:14:51.619Z,86.24
2023-01-29T09:17:18.497Z,85.63
2023-01-29T09:19:45.324Z,85.84
2023-01-29T09:22:12.259Z,84.59
2023-01-29T09:24:39.013Z,84.10
2023-01-29T09:27:06.292Z,83.96
2023-01-29T09:29:35.678Z,83.90
2023-01-29T09:32:04.511Z,83.30
2023-01-29T09:34:31.306Z,83.73
2023-01-29T09:36:58.190Z,83.20
2023-01-29T09:39:25.092Z,83.21
2023-01-29T09:42:15.589Z,83.07
2023-01-29T09:44:51.289Z,83.05
2023-01-29T09:47:18.636Z,82.75
2023-01-29T09:49:59.854Z,82.33
2023-01-29T09:52:30.775Z,82.79
2023-01-29T09:55:03.574Z,83.39
2023-01-29T09:58:27.547Z,80.83
2023-01-29T10:01:34.133Z,77.05
2023-01-29T10:04:08.132Z,74.88
2023-01-29T10:06:40.952Z,73.85
2023-01-29T10:09:51.811Z,72.66
2023-01-29T10:12:46.093Z,72.68
2023-01-29T10:15:40.955Z,70.63
2023-01-29T10:18:55.681Z,70.34
2023-01-29T10:21:25.228Z,69.59
2023-01-29T10:24:24.278Z,70.13
2023-01-29T10:26:52.514Z,70.05
2023-01-29T10:29:22.086Z,70.17
2023-01-29T10:31:56.565Z,69.61
2023-01-29T10:34:32.117Z,69.25
2023-01-29T10:36:59.963Z,69.31
2023-01-29T10:39:27.138Z,69.49
2023-01-29T10:42:29.425Z,69.42
2023-01-29T10:45:24.636Z,69.68
2023-01-29T10:48:22.420Z,69.52
2023-01-29T10:50:51.266Z,69.66
2023-01-29T10:53:39.764Z,70.00
2023-01-29T10:56:22.313Z,69.87
2023-01-29T10:59:00.158Z,69.65
2023-01-29T11:01:27.152Z,69.56
2023-01-29T11:04:02.349Z,69.03
2023-01-29T11:06:35.295Z,69.70
2023-01-29T11:09:29.547Z,69.76
2023-01-29T11:12:21.634Z,70.39
2023-01-29T11:14:53.192Z,70.74
2023-01-29T11:17:22.905Z,70.62
2023-01-29T11:19:51.792Z,70.35
2023-01-29T11:22:21.188Z,70.70
2023-01-29T11:25:07.474Z,70.52
2023-01-29T11:27:35.695Z,71.12
2023-01-29T11:30:02.615Z,71.01
2023-01-29T11:32:32.891Z,71.26
2023-01-29T11:35:19.968Z,71.69
2023-01-29T11:37:47.096Z,71.11
2023-01-29T11:40:20.094Z,72.11
2023-01-29T11:42:47.610Z,72.68
2023-01-29T11:45:20.233Z,72.54
2023-01-29T11:47:53.065Z,72.37
2023-01-29T11:50:24.952Z,71.49
2023-01-29T11:52:52.131Z,71.93
2023-01-29T11:55:49.870Z,71.44
2023-01-29T11:58:21.607Z,71.11
2023-01-29T12:00:50.737Z,71.13
2023-01-29T12:03:25.043Z,71.51
2023-01-29T12:06:03.982Z,70.64
2023-01-29T12:08:37.920Z,70.57
2023-01-29T12:11:35.628Z,70.59
2023-01-29T12:14:05.600Z,70.75
2023-01-29T12:17:04.865Z,70.20
2023-01-29T12:19:50.376Z,69.65
2023-01-29T12:22:54.687Z,68.73
2023-01-29T12:25:28.862Z,69.60
2023-01-29T12:28:24.243Z,68.92
2023-01-29T12:31:17.627Z,69.35
2023-01-29T12:34:02.683Z,68.97
2023-01-29T12:36:52.923Z,69.06
2023-01-29T12:39:20.527Z,68.14
2023-01-29T12:41:56.137Z,68.43
2023-01-29T12:44:31.059Z,68.56
2023-01-29T12:47:00.789Z,69.18
2023-01-29T12:49:33.337Z,68.50
2023-01-29T12:52:07.689Z,68.66
2023-01-29T12:54:41.203Z,69.27
2023-01-29T12:57:23.499Z,69.02
2023-01-29T12:59:58.740Z,68.75
2023-01-29T13:02:50.529Z,69.68
2023-01-29T13:05:30.356Z,69.17
2023-01-29T13:08:02.981Z,69.06
2023-01-29T13:10:34.297Z,69.48
2023-01-29T13:13:10.327Z,69.20
2023-01-29T13:15:39.243Z,69.19
2023-01-29T13:18:38.395Z,69.09
2023-01-29T13:21:05.967Z,69.55
2023-01-29T13:23:39.873Z,70.47
2023-01-29T13:26:06.850Z,71.07
2023-01-29T13:28:33.653Z,71.57
2023-01-29T13:31:31.544Z,71.43
2023-01-29T13:34:06.924Z,72.73
2023-01-29T13:36:34.933Z,73.11
2023-01-29T13:39:05.269Z,73.80
2023-01-29T13:41:38.546Z,74.21
2023-01-29T13:44:07.421Z,74.54
2023-01-29T13:46:40.495Z,75.38
2023-01-29T13:49:42.782Z,75.33
2023-01-29T13:52:34.979Z,75.56
2023-01-29T13:55:09.114Z,75.97
2023-01-29T13:57:45.084Z,75.76
2023-01-29T14:00:20.979Z,76.20
2023-01-29T14:02:49.020Z,76.19
2023-01-29T14:05:31.183Z,75.55
2023-01-29T14:08:09.689Z,75.68
2023-01-29T14:10:37.864Z,75.14
2023-01-29T14:13:04.568Z,75.26
2023-01-29T14:15:36.078Z,74.89
2023-01-29T14:18:15.058Z,74.80
2023-01-29T14:20:47.960Z,75.59
2023-01-29T14:23:26.345Z,75.23
2023-01-29T14:25:53.179Z,76.27
2023-01-29T14:28:24.978Z,76.30
2023-01-29T14:30:52.581Z,76.37
2023-01-29T14:33:41.773Z,76.56
2023-01-29T14:36:13.131Z,74.73
2023-01-29T14:38:41.953Z,70.51
2023-01-29T14:41:26.679Z,69.06
2023-01-29T14:44:31.992Z,68.86
2023-01-29T14:46:58.840Z,69.16
2023-01-29T14:49:54.448Z,69.14
2023-01-29T14:52:25.951Z,69.01
2023-01-29T14:54:52.943Z,69.05
2023-01-29T14:57:20.371Z,68.45
2023-01-29T14:59:53.541Z,69.55
2023-01-29T15:02:27.025Z,69.30
2023-01-29T15:04:58.990Z,69.05
2023-01-29T15:07:31.034Z,70.06
2023-01-29T15:10:24.480Z,69.49
2023-01-29T15:13:15.637Z,70.55
2023-01-29T15:16:02.899Z,70.53
2023-01-29T15:18:43.326Z,72.01
2023-01-29T15:21:15.646Z,74.38
2023-01-29T15:23:44.289Z,75.49
2023-01-29T15:26:16.190Z,77.30
2023-01-29T15:28:47.136Z,78.32
2023-01-29T15:31:18.473Z,79.46
2023-01-29T15:33:46.102Z,80.59
2023-01-29T15:36:20.246Z,81.57
2023-01-29T15:38:47.081Z,83.35
2023-01-29T15:41:22.008Z,86.67
2023-01-29T15:43:57.956Z,88.71
2023-01-29T15:46:30.109Z,87.59
2023-01-29T15:48:59.475Z,88.62
2023-01-29T15:51:27.606Z,88.02
2023-01-29T15:54:00.179Z,89.83
2023-01-29T15:56:31.507Z,88.85
2023-01-29T15:59:00.310Z,87.63
2023-01-29T16:01:28.974Z,88.13
2023-01-29T16:03:59.388Z,86.59
2023-01-29T16:06:26.995Z,84.78
2023-01-29T16:08:54.637Z,85.69
2023-01-29T16:11:21.620Z,84.33
2023-01-29T16:13:50.319Z,84.27
2023-01-29T16:16:27.689Z,84.18
2023-01-29T16:19:01.142Z,84.54
2023-01-29T16:21:39.328Z,83.94
2023-01-29T16:24:09.847Z,85.54
2023-01-29T16:26:38.753Z,83.83
2023-01-29T16:29:07.212Z,83.12
2023-01-29T16:31:35.955Z,84.13
2023-01-29T16:34:41.864Z,83.49
2023-01-29T16:37:20.267Z,83.85
2023-01-29T16:39:48.829Z,83.32
2023-01-29T16:42:20.381Z,82.46
2023-01-29T16:45:02.148Z,81.56
2023-01-29T16:47:41.435Z,82.36
2023-01-29T16:50:40.642Z,82.27
2023-01-29T16:53:20.925Z,82.09
2023-01-29T16:55:49.778Z,80.07
2023-01-29T16:58:21.381Z,79.24
2023-01-29T17:00:53.922Z,78.68
2023-01-29T17:03:21.353Z,79.21
2023-01-29T17:05:48.355Z,77.97
2023-01-29T17:08:19.838Z,77.68
2023-01-29T17:10:49.754Z,77.85
2023-01-29T17:13:27.520Z,77.43
2023-01-29T17:16:00.236Z,76.79
2023-01-29T17:18:27.049Z,77.05
2023-01-29T17:20:53.925Z,76.54
2023-01-29T17:23:21.089Z,76.85
2023-01-29T17:25:48.211Z,76.17
2023-01-29T17:28:17.327Z,76.19
2023-01-29T17:30:50.581Z,76.07
2023-01-29T17:33:23.504Z,74.96
2023-01-29T17:35:50.610Z,74.71
2023-01-29T17:38:25.914Z,74.13
2023-01-29T17:41:00.352Z,74.60
2023-01-29T17:43:27.526Z,73.95
2023-01-29T17:45:54.505Z,73.24
2023-01-29T17:48:26.670Z,72.88
2023-01-29T17:50:59.099Z,73.75
2023-01-29T17:53:30.560Z,71.54
2023-01-29T17:56:03.270Z,70.29
2023-01-29T17:58:30.044Z,70.06
2023-01-29T18:00:56.794Z,68.88
2023-01-29T18:03:23.673Z,70.46
2023-01-29T18:05:50.673Z,70.36
2023-01-29T18:08:35.426Z,69.01
2023-01-29T18:11:02.327Z,69.22
2023-01-29T18:13:29.058Z,68.70
2023-01-29T18:15:55.881Z,68.96
2023-01-29T18:18:23.987Z,68.65
2023-01-29T18:20:51.076Z,68.36
2023-01-29T18:23:18.652Z,68.78
2023-01-29T18:25:45.682Z,68.39
2023-01-29T18:28:19.931Z,67.09
2023-01-29T18:30:47.708Z,67.69
2023-01-29T18:33:15.792Z,66.90
2023-01-29T18:35:48.253Z,65.63
2023-01-29T18:38:15.178Z,65.38
2023-01-29T18:40:42.054Z,65.20
2023-01-29T18:43:09.220Z,65.47
2023-01-29T18:45:36.548Z,64.00
2023-01-29T18:48:03.690Z,62.65
2023-01-29T18:50:30.684Z,62.54
2023-01-29T18:52:57.580Z,63.49
2023-01-29T18:55:24.352Z,62.41
2023-01-29T18:58:29.578Z,62.58
2023-01-29T19:00:41.931Z,61.61
2023-01-29T19:03:08.785Z,61.80
2023-01-29T19:05:35.685Z,62.25
2023-01-29T19:08:02.501Z,62.07
2023-01-29T19:10:29.289Z,63.00
2023-01-29T19:12:56.165Z,61.96
2023-01-29T19:15:23.255Z,62.28
2023-01-29T19:17:51.124Z,61.90
2023-01-29T19:20:18.196Z,62.32
2023-01-29T19:22:45.143Z,62.02
2023-01-29T19:25:12.830Z,62.32
2023-01-29T19:27:39.879Z,62.54
2023-01-29T19:30:07.675Z,62.53
2023-01-29T19:32:34.698Z,62.54
2023-01-29T19:35:01.571Z,62.52
2023-01-29T19:37:30.573Z,62.47
2023-01-29T19:39:57.534Z,61.78
2023-01-29T19:42:24.575Z,62.79
2023-01-29T19:44:52.141Z,62.42
2023-01-29T19:47:19.182Z,62.60
2023-01-29T19:49:46.055Z,62.87
2023-01-29T19:52:49.861Z,63.42
2023-01-29T19:55:19.071Z,63.35
2023-01-29T19:57:46.189Z,63.21
2023-01-29T20:00:15.583Z,64.38
2023-01-29T20:02:42.386Z,65.32
2023-01-29T20:05:12.080Z,65.99
2023-01-29T20:07:40.569Z,66.83
2023-01-29T20:10:09.750Z,67.80
2023-01-29T20:12:36.571Z,68.21
2023-01-29T20:15:03.943Z,69.48
2023-01-29T20:17:30.762Z,70.13
2023-01-29T20:19:57.563Z,70.93
2023-01-29T20:22:26.559Z,71.51
2023-01-29T20:24:53.276Z,71.55
2023-01-29T20:27:20.089Z,72.47
2023-01-29T20:29:46.861Z,72.80
2023-01-29T20:32:14.737Z,72.80
2023-01-29T20:34:41.643Z,73.27
2023-01-29T20:37:08.382Z,73.62
2023-01-29T20:39:35.435Z,74.13
2023-01-29T20:42:02.239Z,73.37
2023-01-29T20:44:29.056Z,73.52
2023-01-29T20:46:58.518Z,73.12
2023-01-29T20:49:28.382Z,73.49
2023-01-29T20:51:55.265Z,73.26
2023-01-29T20:54:22.221Z,73.23
2023-01-29T20:56:49.277Z,73.10
2023-01-29T20:59:16.860Z,72.71
2023-01-29T21:01:44.220Z,72.46
2023-01-29T21:04:11.017Z,72.62
2023-01-29T21:06:37.833Z,73.16
2023-01-29T21:09:04.759Z,73.30
2023-01-29T21:11:33.464Z,74.44
2023-01-29T21:14:01.893Z,75.06
2023-01-29T21:16:29.089Z,74.72
2023-01-29T21:18:57.241Z,74.82
2023-01-29T21:21:24.343Z,74.53
2023-01-29T21:23:51.259Z,74.81
2023-01-29T21:26:18.921Z,75.01
2023-01-29T21:28:46.206Z,74.63
2023-01-29T21:31:14.606Z,74.59
2023-01-29T21:33:41.397Z,74.22
2023-01-29T21:36:10.175Z,74.08
2023-01-29T21:38:37.033Z,73.69
2023-01-29T21:41:05.957Z,72.79
2023-01-29T21:43:33.216Z,72.32
2023-01-29T21:46:03.921Z,72.38
2023-01-29T21:48:30.786Z,72.69
2023-01-29T21:50:57.609Z,72.92
2023-01-29T21:53:24.707Z,73.38
2023-01-29T21:55:51.913Z,73.61
2023-01-29T21:58:20.863Z,73.82
2023-01-29T22:00:48.933Z,73.67
2023-01-29T22:03:15.999Z,73.65
2023-01-29T22:05:42.911Z,73.72
2023-01-29T22:09:35.629Z,73.14
2023-01-29T22:12:02.434Z,72.24
2023-01-29T22:14:29.277Z,72.28
2023-01-29T22:16:56.928Z,71.29
2023-01-29T22:19:25.350Z,71.74
2023-01-29T22:21:53.156Z,71.40
2023-01-29T22:24:21.097Z,70.87
2023-01-29T22:26:49.618Z,70.73
2023-01-29T22:29:19.712Z,71.24
2023-01-29T22:31:46.789Z,71.51
2023-01-29T22:34:14.488Z,71.62
2023-01-29T22:36:41.283Z,72.25
2023-01-29T22:39:08.784Z,72.21
2023-01-29T22:41:36.490Z,73.06
2023-01-29T22:44:03.497Z,73.28
2023-01-29T22:46:30.498Z,73.99
2023-01-29T22:48:57.276Z,73.95
2023-01-29T22:51:24.069Z,73.81
2023-01-29T22:53:53.154Z,73.52
2023-01-29T22:56:25.224Z,73.74
2023-01-29T22:58:52.938Z,73.74
2023-01-29T23:01:38.469Z,73.35
2023-01-29T23:04:05.394Z,72.63
2023-01-29T23:06:32.134Z,72.15
2023-01-29T23:08:59.322Z,72.08
2023-01-29T23:11:26.269Z,71.78
2023-01-29T23:13:55.073Z,71.38
2023-01-29T23:16:26.782Z,70.73
2023-01-29T23:18:55.599Z,70.03
2023-01-29T23:21:25.054Z,69.59
2023-01-29T23:24:01.487Z,69.75
2023-01-29T23:26:47.385Z,68.93
2023-01-29T23:29:14.825Z,68.97
2023-01-29T23:31:41.653Z,68.66
2023-01-29T23:34:08.574Z,68.11
2023-01-29T23:36:35.316Z,67.97
2023-01-29T23:39:02.086Z,67.59
2023-01-29T23:41:28.949Z,67.79
2023-01-29T23:43:55.806Z,67.39
2023-01-29T23:46:23.033Z,67.16
2023-01-29T23:48:49.836Z,66.94
2023-01-29T23:51:16.689Z,67.29
2023-01-29T23:53:43.555Z,67.48
2023-01-29T23:56:10.679Z,67.42
2023-01-29T23:58:37.553Z,67.70
